createdAt,value
2019-06-27T00:01:03.260Z,62.15
2019-06-27T00:03:32.128Z,62.58
2019-06-27T00:06:01.038Z,62.33
2019-06-27T00:08:29.911Z,62.34
2019-06-27T00:10:58.824Z,62.23
2019-06-27T00:13:27.664Z,62.49
2019-06-27T00:15:56.572Z,62.51
2019-06-27T00:18:25.450Z,62.64
2019-06-27T00:20:55.540Z,62.55
2019-06-27T00:23:24.448Z,62.42
2019-06-27T00:25:53.338Z,62.10
2019-06-27T00:28:22.197Z,62.19
2019-06-27T00:30:51.100Z,62.12
2019-06-27T00:33:19.971Z,62.54
2019-06-27T00:35:48.885Z,62.49
2019-06-27T00:38:17.762Z,62.70
2019-06-27T00:40:46.634Z,63.18
2019-06-27T00:43:15.546Z,63.28
2019-06-27T00:45:44.422Z,63.09
2019-06-27T00:48:13.304Z,63.43
2019-06-27T00:50:42.178Z,63.24
2019-06-27T00:53:11.074Z,63.50
2019-06-27T00:55:39.950Z,63.42
2019-06-27T00:58:08.842Z,63.42
2019-06-27T01:00:37.729Z,63.04
2019-06-27T01:03:06.646Z,63.16
2019-06-27T01:05:35.522Z,63.11
2019-06-27T01:08:04.390Z,62.99
2019-06-27T01:10:33.307Z,63.19
2019-06-27T01:13:02.185Z,63.11
2019-06-27T01:15:31.085Z,62.99
2019-06-27T01:17:59.972Z,62.87
2019-06-27T01:20:28.844Z,62.67
2019-06-27T01:22:57.736Z,62.84
2019-06-27T01:25:26.677Z,63.21
2019-06-27T01:27:55.546Z,62.55
2019-06-27T01:30:24.463Z,62.45
2019-06-27T01:32:53.346Z,62.53
2019-06-27T01:35:22.246Z,62.75
2019-06-27T01:37:51.164Z,63.01
2019-06-27T01:40:20.052Z,63.10
2019-06-27T01:42:49.001Z,62.96
2019-06-27T01:45:36.952Z,63.37
2019-06-27T01:48:05.837Z,63.06
2019-06-27T01:50:34.756Z,63.13
2019-06-27T01:53:03.656Z,63.46
2019-06-27T01:55:32.574Z,63.78
2019-06-27T01:58:01.483Z,63.57
2019-06-27T02:00:30.362Z,63.36
2019-06-27T02:02:59.280Z,63.16
2019-06-27T02:05:28.197Z,63.22
2019-06-27T02:07:57.107Z,62.65
2019-06-27T02:10:26.020Z,62.16
2019-06-27T02:12:54.936Z,62.34
2019-06-27T02:15:23.857Z,62.34
2019-06-27T02:17:52.797Z,62.14
2019-06-27T02:20:21.694Z,62.08
2019-06-27T02:22:50.599Z,62.28
2019-06-27T02:25:19.503Z,62.07
2019-06-27T02:28:02.641Z,61.85
2019-06-27T02:30:17.994Z,62.15
2019-06-27T02:32:46.883Z,62.14
2019-06-27T02:35:15.816Z,62.39
2019-06-27T02:37:44.741Z,62.93
2019-06-27T02:40:13.631Z,62.80
2019-06-27T02:42:42.549Z,62.99
2019-06-27T02:45:11.469Z,62.86
2019-06-27T02:47:40.326Z,62.79
2019-06-27T02:50:09.285Z,62.86
2019-06-27T02:52:38.190Z,62.68
2019-06-27T02:55:07.211Z,61.79
2019-06-27T02:57:36.006Z,62.61
2019-06-27T03:00:04.964Z,62.77
2019-06-27T03:02:33.839Z,62.39
2019-06-27T03:05:02.774Z,62.33
2019-06-27T03:07:31.657Z,62.18
2019-06-27T03:10:00.542Z,62.27
2019-06-27T03:12:29.477Z,62.50
2019-06-27T03:14:58.341Z,62.39
2019-06-27T03:17:27.260Z,62.64
2019-06-27T03:19:56.130Z,62.55
2019-06-27T03:22:25.023Z,62.58
2019-06-27T03:24:53.927Z,62.52
2019-06-27T03:27:22.839Z,62.41
2019-06-27T03:29:51.746Z,62.12
2019-06-27T03:32:20.658Z,62.45
2019-06-27T03:34:49.559Z,62.31
2019-06-27T03:37:18.470Z,61.77
2019-06-27T03:39:47.358Z,61.98
2019-06-27T03:42:16.276Z,62.27
2019-06-27T03:44:45.185Z,62.09
2019-06-27T03:47:14.071Z,62.42
2019-06-27T03:49:42.975Z,62.30
2019-06-27T03:52:11.869Z,62.21
2019-06-27T03:54:40.792Z,62.37
2019-06-27T03:57:09.767Z,62.35
2019-06-27T03:59:38.679Z,62.29
2019-06-27T04:02:07.674Z,62.05
2019-06-27T04:04:36.562Z,61.61
2019-06-27T04:07:05.737Z,61.71
2019-06-27T04:09:34.574Z,61.55
2019-06-27T04:12:03.512Z,61.55
2019-06-27T04:14:32.422Z,61.92
2019-06-27T04:17:01.353Z,61.30
2019-06-27T04:19:30.233Z,60.95
2019-06-27T04:21:59.150Z,61.11
2019-06-27T04:24:28.074Z,61.11
2019-06-27T04:26:57.038Z,61.10
2019-06-27T04:29:33.450Z,61.11
2019-06-27T04:31:54.856Z,60.70
2019-06-27T04:34:23.755Z,60.52
2019-06-27T04:36:52.659Z,60.12
2019-06-27T04:39:21.561Z,60.48
2019-06-27T04:41:50.481Z,60.01
2019-06-27T04:44:19.380Z,60.18
2019-06-27T04:46:48.305Z,59.98
2019-06-27T04:49:17.215Z,59.76
2019-06-27T04:51:46.108Z,59.57
2019-06-27T04:54:15.009Z,59.29
2019-06-27T04:56:43.911Z,59.42
2019-06-27T04:59:12.811Z,59.62
2019-06-27T05:01:41.750Z,59.60
2019-06-27T05:04:10.644Z,59.11
2019-06-27T05:06:39.564Z,59.14
2019-06-27T05:09:08.477Z,59.38
2019-06-27T05:11:37.380Z,59.27
2019-06-27T05:14:06.401Z,59.35
2019-06-27T05:16:35.300Z,59.32
2019-06-27T05:19:04.292Z,59.10
2019-06-27T05:21:33.141Z,59.32
2019-06-27T05:24:02.047Z,59.21
2019-06-27T05:26:30.966Z,58.82
2019-06-27T05:28:59.874Z,58.42
2019-06-27T05:31:28.778Z,57.93
2019-06-27T05:33:57.690Z,57.92
2019-06-27T05:36:26.566Z,57.29
2019-06-27T05:38:55.480Z,56.48
2019-06-27T05:41:24.429Z,57.11
2019-06-27T05:43:53.353Z,56.99
2019-06-27T05:46:22.242Z,56.18
2019-06-27T05:48:51.171Z,56.96
2019-06-27T05:51:20.138Z,57.03
2019-06-27T05:53:49.039Z,56.94
2019-06-27T05:56:17.935Z,56.36
2019-06-27T05:58:46.861Z,56.05
2019-06-27T06:01:15.794Z,56.06
2019-06-27T06:03:44.690Z,54.99
2019-06-27T06:06:13.585Z,54.84
2019-06-27T06:08:42.463Z,54.90
2019-06-27T06:11:11.377Z,54.51
2019-06-27T06:13:40.241Z,53.49
2019-06-27T06:16:09.288Z,52.49
2019-06-27T06:18:38.195Z,51.84
2019-06-27T06:21:07.342Z,51.64
2019-06-27T06:23:36.100Z,49.10
2019-06-27T06:26:05.167Z,48.45
2019-06-27T06:28:34.039Z,47.59
2019-06-27T06:31:02.944Z,47.03
2019-06-27T06:33:31.848Z,44.56
2019-06-27T06:36:00.774Z,39.42
2019-06-27T06:38:29.742Z,34.79
2019-06-27T06:40:58.634Z,32.42
2019-06-27T06:43:27.552Z,30.27
2019-06-27T06:45:56.444Z,28.27
2019-06-27T06:48:25.392Z,26.31
2019-06-27T06:50:54.378Z,25.65
2019-06-27T06:53:23.385Z,24.56
2019-06-27T06:55:52.212Z,24.01
2019-06-27T06:58:21.137Z,23.10
2019-06-27T07:01:00.837Z,23.10
2019-06-27T07:03:18.981Z,22.83
2019-06-27T07:05:47.860Z,21.73
2019-06-27T07:08:16.781Z,21.31
2019-06-27T07:10:45.674Z,21.14
2019-06-27T07:13:14.583Z,19.99
2019-06-27T07:15:43.473Z,19.74
2019-06-27T07:18:12.391Z,19.66
2019-06-27T07:20:41.339Z,19.13
2019-06-27T07:23:10.268Z,18.80
2019-06-27T07:25:39.201Z,19.15
2019-06-27T07:28:08.159Z,19.42
2019-06-27T07:30:37.060Z,18.99
2019-06-27T07:33:06.043Z,19.64
2019-06-27T07:35:34.960Z,18.90
2019-06-27T07:38:03.914Z,19.32
2019-06-27T07:40:32.821Z,18.82
2019-06-27T07:43:01.714Z,17.96
2019-06-27T07:45:30.629Z,17.79
2019-06-27T07:47:59.548Z,17.84
2019-06-27T07:50:28.428Z,18.13
2019-06-27T07:52:57.370Z,17.48
2019-06-27T07:55:26.300Z,17.39
2019-06-27T07:57:55.194Z,16.94
2019-06-27T08:00:24.075Z,16.83
2019-06-27T08:02:53.018Z,16.25
2019-06-27T08:05:21.929Z,16.71
2019-06-27T08:07:50.842Z,16.72
2019-06-27T08:10:19.762Z,16.92
2019-06-27T08:12:48.661Z,17.25
2019-06-27T08:15:17.572Z,16.71
2019-06-27T08:17:46.455Z,16.58
2019-06-27T08:20:15.358Z,16.53
2019-06-27T08:22:44.243Z,17.01
2019-06-27T08:25:13.160Z,17.00
2019-06-27T08:27:42.087Z,17.26
2019-06-27T08:30:10.991Z,16.55
2019-06-27T08:32:39.905Z,16.52
2019-06-27T08:35:08.831Z,17.10
2019-06-27T08:37:37.739Z,16.42
2019-06-27T08:40:06.776Z,16.74
2019-06-27T08:42:35.717Z,17.18
2019-06-27T08:45:04.920Z,17.27
2019-06-27T08:47:33.816Z,17.66
2019-06-27T08:50:02.853Z,17.11
2019-06-27T08:52:31.966Z,16.44
2019-06-27T08:55:00.882Z,16.26
2019-06-27T08:57:29.781Z,15.32
2019-06-27T08:59:58.688Z,15.61
2019-06-27T09:02:27.681Z,15.28
2019-06-27T09:04:56.484Z,15.81
2019-06-27T09:07:25.370Z,15.72
2019-06-27T09:09:54.282Z,15.57
2019-06-27T09:12:23.254Z,16.00
2019-06-27T09:14:52.101Z,16.78
2019-06-27T09:17:20.991Z,16.31
2019-06-27T09:19:49.914Z,16.48
2019-06-27T09:22:18.820Z,15.68
2019-06-27T09:24:47.737Z,15.69
2019-06-27T09:27:16.651Z,16.13
2019-06-27T09:29:45.562Z,16.58
2019-06-27T09:32:24.902Z,16.56
2019-06-27T09:34:43.357Z,16.66
2019-06-27T09:37:12.279Z,16.43
2019-06-27T09:39:41.289Z,16.60
2019-06-27T09:42:10.118Z,16.47
2019-06-27T09:44:42.094Z,17.00
2019-06-27T09:47:08.059Z,17.40
2019-06-27T09:49:36.978Z,15.88
2019-06-27T09:52:05.976Z,16.69
2019-06-27T09:54:34.870Z,17.29
2019-06-27T09:57:03.762Z,17.30
2019-06-27T09:59:32.645Z,18.04
2019-06-27T10:02:01.547Z,17.51
2019-06-27T10:04:30.456Z,17.18
2019-06-27T10:06:59.356Z,16.50
2019-06-27T10:09:28.279Z,16.26
2019-06-27T10:11:57.203Z,16.82
2019-06-27T10:14:26.071Z,16.64
2019-06-27T10:16:58.474Z,17.51
2019-06-27T10:19:23.894Z,17.99
2019-06-27T10:21:52.818Z,17.39
2019-06-27T10:24:21.744Z,17.65
2019-06-27T10:26:50.680Z,17.57
2019-06-27T10:29:19.733Z,17.69
2019-06-27T10:31:48.636Z,17.28
2019-06-27T10:34:17.562Z,17.18
2019-06-27T10:36:46.497Z,18.10
2019-06-27T10:39:15.433Z,17.59
2019-06-27T10:41:44.279Z,18.28
2019-06-27T10:44:13.272Z,17.42
2019-06-27T10:46:42.184Z,17.86
2019-06-27T10:49:11.069Z,18.95
2019-06-27T10:51:39.992Z,18.14
2019-06-27T10:54:08.909Z,18.66
2019-06-27T10:56:39.982Z,17.55
2019-06-27T10:59:06.785Z,17.69
2019-06-27T11:01:35.702Z,18.18
2019-06-27T11:04:04.591Z,17.80
2019-06-27T11:06:33.520Z,18.77
2019-06-27T11:09:02.480Z,19.26
2019-06-27T11:11:31.509Z,20.14
2019-06-27T11:14:00.271Z,19.37
2019-06-27T11:16:29.181Z,18.73
2019-06-27T11:18:58.093Z,18.81
2019-06-27T11:21:27.002Z,18.15
2019-06-27T11:23:55.922Z,18.83
2019-06-27T11:26:24.875Z,18.80
2019-06-27T11:28:53.765Z,20.10
2019-06-27T11:31:22.680Z,19.94
2019-06-27T11:33:51.565Z,18.88
2019-06-27T11:36:20.492Z,20.39
2019-06-27T11:38:49.408Z,20.45
2019-06-27T11:41:18.287Z,19.36
2019-06-27T11:43:47.180Z,19.37
2019-06-27T11:46:16.093Z,20.66
2019-06-27T11:48:44.993Z,20.24
2019-06-27T11:51:13.898Z,20.73
2019-06-27T11:53:42.814Z,20.85
2019-06-27T11:56:11.744Z,20.33
2019-06-27T11:58:40.670Z,21.36
2019-06-27T12:01:09.695Z,21.75
2019-06-27T12:03:48.942Z,21.15
2019-06-27T12:06:07.605Z,22.46
2019-06-27T12:08:36.480Z,23.15
2019-06-27T12:11:05.522Z,24.30
2019-06-27T12:13:34.423Z,25.14
2019-06-27T12:16:03.394Z,25.31
2019-06-27T12:18:32.374Z,25.19
2019-06-27T12:21:01.246Z,26.86
2019-06-27T12:23:30.168Z,27.39
2019-06-27T12:25:59.074Z,28.38
2019-06-27T12:28:28.006Z,28.17
2019-06-27T12:30:56.890Z,28.25
2019-06-27T12:33:25.800Z,28.25
2019-06-27T12:35:54.710Z,29.11
2019-06-27T12:38:23.612Z,29.25
2019-06-27T12:40:52.500Z,30.23
2019-06-27T12:43:21.398Z,30.19
2019-06-27T12:45:50.288Z,30.78
2019-06-27T12:48:19.198Z,31.08
2019-06-27T12:50:48.101Z,30.54
2019-06-27T12:53:17.007Z,30.09
2019-06-27T12:55:45.933Z,31.04
2019-06-27T12:58:15.327Z,31.04
2019-06-27T13:00:44.550Z,31.39
2019-06-27T13:03:13.745Z,32.32
2019-06-27T13:05:43.191Z,32.40
2019-06-27T13:08:15.217Z,32.89
2019-06-27T13:10:44.810Z,32.67
2019-06-27T13:13:13.893Z,32.43
2019-06-27T13:15:43.140Z,33.34
2019-06-27T13:18:14.408Z,32.39
2019-06-27T13:20:57.219Z,32.71
2019-06-27T13:23:12.687Z,32.44
2019-06-27T13:25:43.850Z,33.66
2019-06-27T13:28:13.005Z,33.27
2019-06-27T13:30:42.378Z,33.62
2019-06-27T13:33:14.006Z,32.88
2019-06-27T13:35:43.193Z,33.47
2019-06-27T13:38:12.186Z,34.08
2019-06-27T13:40:41.314Z,34.29
2019-06-27T13:43:10.697Z,34.33
2019-06-27T13:45:39.807Z,34.77
2019-06-27T13:48:09.018Z,35.17
2019-06-27T13:50:38.123Z,35.16
2019-06-27T13:53:07.834Z,35.31
2019-06-27T13:55:36.751Z,36.11
2019-06-27T13:58:11.426Z,36.29
2019-06-27T14:00:44.882Z,36.67
2019-06-27T14:03:13.834Z,35.74
2019-06-27T14:05:42.745Z,36.97
2019-06-27T14:08:11.726Z,36.32
2019-06-27T14:10:40.628Z,36.69
2019-06-27T14:13:09.587Z,36.96
2019-06-27T14:15:38.469Z,36.93
2019-06-27T14:18:07.508Z,37.58
2019-06-27T14:20:36.438Z,37.42
2019-06-27T14:23:05.509Z,37.05
2019-06-27T14:25:34.386Z,37.03
2019-06-27T14:28:03.448Z,36.75
2019-06-27T14:30:32.266Z,35.55
2019-06-27T14:33:01.714Z,36.40
2019-06-27T14:35:30.562Z,37.20
2019-06-27T14:37:59.509Z,37.08
2019-06-27T14:40:28.391Z,37.48
2019-06-27T14:42:57.305Z,37.06
2019-06-27T14:45:26.234Z,37.52
2019-06-27T14:47:55.118Z,37.61
2019-06-27T14:50:24.068Z,38.01
2019-06-27T14:52:52.949Z,37.50
2019-06-27T14:55:22.473Z,37.87
2019-06-27T14:57:51.405Z,38.31
2019-06-27T15:00:20.289Z,38.05
2019-06-27T15:02:49.162Z,37.50
2019-06-27T15:05:32.072Z,36.79
2019-06-27T15:07:46.960Z,37.06
2019-06-27T15:10:15.875Z,36.91
2019-06-27T15:12:56.493Z,37.83
2019-06-27T15:15:13.696Z,37.37
2019-06-27T15:17:42.610Z,38.22
2019-06-27T15:20:11.510Z,38.59
2019-06-27T15:22:40.416Z,38.19
2019-06-27T15:25:09.440Z,38.80
2019-06-27T15:27:38.373Z,39.61
2019-06-27T15:30:07.432Z,39.57
2019-06-27T15:32:36.346Z,39.49
2019-06-27T15:35:05.464Z,39.52
2019-06-27T15:37:34.369Z,40.18
2019-06-27T15:40:03.350Z,38.58
2019-06-27T15:42:32.255Z,39.32
2019-06-27T15:45:01.170Z,39.43
2019-06-27T15:47:30.087Z,39.70
2019-06-27T15:49:59.002Z,39.47
2019-06-27T15:52:27.901Z,40.21
2019-06-27T15:54:56.793Z,39.67
2019-06-27T15:57:25.710Z,39.16
2019-06-27T15:59:54.633Z,39.71
2019-06-27T16:02:23.496Z,39.57
2019-06-27T16:04:52.405Z,39.76
2019-06-27T16:07:21.286Z,39.79
2019-06-27T16:09:50.185Z,39.76
2019-06-27T16:12:19.064Z,39.83
2019-06-27T16:14:47.977Z,40.10
2019-06-27T16:17:16.857Z,39.98
2019-06-27T16:19:45.766Z,40.34
2019-06-27T16:22:14.653Z,40.74
2019-06-27T16:24:43.564Z,40.84
2019-06-27T16:27:12.470Z,40.80
2019-06-27T16:29:41.375Z,40.11
2019-06-27T16:32:10.254Z,39.97
2019-06-27T16:34:39.175Z,39.92
2019-06-27T16:37:08.197Z,40.36
2019-06-27T16:39:38.981Z,40.34
2019-06-27T16:42:06.101Z,40.12
2019-06-27T16:44:34.967Z,40.87
2019-06-27T16:47:03.862Z,40.99
2019-06-27T16:49:32.747Z,40.81
2019-06-27T16:52:01.694Z,41.32
2019-06-27T16:54:30.528Z,41.10
2019-06-27T16:56:59.438Z,40.62
2019-06-27T16:59:28.325Z,41.05
2019-06-27T17:01:57.217Z,40.80
2019-06-27T17:04:26.163Z,41.06
2019-06-27T17:06:55.045Z,41.82
2019-06-27T17:09:23.936Z,42.13
2019-06-27T17:11:52.852Z,42.42
2019-06-27T17:14:21.751Z,42.49
2019-06-27T17:16:50.628Z,42.62
2019-06-27T17:19:19.529Z,42.46
2019-06-27T17:21:48.416Z,42.83
2019-06-27T17:24:17.324Z,42.97
2019-06-27T17:26:46.209Z,42.59
2019-06-27T17:29:15.110Z,42.78
2019-06-27T17:31:44.026Z,42.40
2019-06-27T17:34:14.235Z,42.49
2019-06-27T17:36:56.561Z,42.58
2019-06-27T17:39:10.722Z,42.30
2019-06-27T17:41:39.620Z,42.18
2019-06-27T17:44:08.627Z,42.61
2019-06-27T17:46:37.511Z,42.92
2019-06-27T17:49:06.548Z,43.02
2019-06-27T17:51:35.441Z,43.29
2019-06-27T17:54:04.440Z,43.42
2019-06-27T17:56:33.349Z,43.79
2019-06-27T17:59:02.289Z,44.20
2019-06-27T18:01:31.463Z,44.26
2019-06-27T18:04:00.376Z,44.36
2019-06-27T18:06:29.320Z,44.71
2019-06-27T18:08:58.245Z,44.45
2019-06-27T18:11:27.121Z,44.60
2019-06-27T18:13:56.037Z,44.50
2019-06-27T18:16:24.928Z,44.39
2019-06-27T18:18:53.834Z,44.40
2019-06-27T18:21:22.727Z,44.74
2019-06-27T18:23:51.657Z,44.71
2019-06-27T18:26:20.526Z,45.17
2019-06-27T18:28:49.421Z,45.03
2019-06-27T18:31:18.320Z,45.53
2019-06-27T18:33:47.217Z,45.54
2019-06-27T18:36:16.097Z,45.34
2019-06-27T18:38:45.029Z,45.87
2019-06-27T18:41:13.912Z,45.65
2019-06-27T18:43:42.881Z,46.34
2019-06-27T18:46:11.771Z,46.22
2019-06-27T18:48:40.674Z,46.36
2019-06-27T18:51:09.703Z,46.06
2019-06-27T18:53:38.629Z,46.38
2019-06-27T18:56:07.674Z,46.41
2019-06-27T18:58:36.521Z,46.32
2019-06-27T19:01:05.534Z,46.74
2019-06-27T19:03:34.411Z,47.32
2019-06-27T19:06:03.409Z,46.96
2019-06-27T19:08:32.272Z,47.24
2019-06-27T19:11:01.299Z,47.62
2019-06-27T19:13:30.065Z,47.88
2019-06-27T19:15:58.966Z,48.11
2019-06-27T19:18:48.564Z,48.25
2019-06-27T19:21:26.962Z,48.83
2019-06-27T19:24:04.217Z,49.24
2019-06-27T19:26:33.102Z,49.44
2019-06-27T19:29:02.505Z,49.70
2019-06-27T19:31:30.945Z,50.05
2019-06-27T19:33:59.820Z,50.59
2019-06-27T19:36:28.734Z,50.43
2019-06-27T19:38:57.654Z,50.53
2019-06-27T19:41:26.538Z,50.63
2019-06-27T19:43:55.445Z,51.27
2019-06-27T19:46:24.355Z,51.86
2019-06-27T19:48:53.269Z,51.96
2019-06-27T19:51:22.267Z,51.97
2019-06-27T19:53:51.847Z,52.41
2019-06-27T19:56:20.892Z,52.74
2019-06-27T19:58:49.816Z,52.99
2019-06-27T20:01:18.731Z,52.98
2019-06-27T20:03:47.631Z,53.59
2019-06-27T20:06:16.565Z,53.68
2019-06-27T20:08:45.477Z,54.16
2019-06-27T20:11:14.389Z,54.55
2019-06-27T20:13:43.304Z,54.99
2019-06-27T20:16:12.203Z,54.87
2019-06-27T20:18:41.120Z,55.13
2019-06-27T20:21:10.127Z,55.99
2019-06-27T20:23:39.009Z,55.64
2019-06-27T20:26:07.916Z,56.03
2019-06-27T20:28:36.802Z,55.36
2019-06-27T20:31:05.821Z,55.69
2019-06-27T20:33:34.704Z,55.77
2019-06-27T20:36:03.599Z,55.56
2019-06-27T20:38:35.185Z,55.96
2019-06-27T20:41:01.400Z,55.79
2019-06-27T20:43:30.296Z,55.82
2019-06-27T20:45:59.198Z,56.44
2019-06-27T20:48:28.077Z,56.60
2019-06-27T20:50:57.024Z,56.62
2019-06-27T20:53:25.897Z,56.71
2019-06-27T20:55:54.813Z,56.61
2019-06-27T20:58:23.686Z,56.92
2019-06-27T21:00:52.596Z,56.99
2019-06-27T21:03:21.518Z,57.44
2019-06-27T21:05:50.414Z,57.69
2019-06-27T21:08:19.294Z,58.32
2019-06-27T21:10:48.183Z,58.29
2019-06-27T21:13:17.086Z,58.33
2019-06-27T21:15:46.011Z,58.28
2019-06-27T21:18:14.903Z,58.45
2019-06-27T21:20:43.828Z,58.74
2019-06-27T21:23:12.713Z,58.54
2019-06-27T21:25:41.625Z,58.24
2019-06-27T21:28:10.552Z,58.88
2019-06-27T21:30:39.468Z,58.92
2019-06-27T21:33:08.464Z,59.27
2019-06-27T21:35:37.374Z,59.17
2019-06-27T21:38:06.266Z,59.16
2019-06-27T21:40:35.181Z,59.43
2019-06-27T21:43:04.075Z,59.47
2019-06-27T21:45:32.976Z,59.97
2019-06-27T21:48:01.971Z,60.06
2019-06-27T21:50:30.803Z,59.99
2019-06-27T21:52:59.679Z,60.28
2019-06-27T21:55:28.570Z,60.16
2019-06-27T21:57:59.981Z,60.43
2019-06-27T22:00:26.971Z,60.67
2019-06-27T22:02:55.874Z,60.95
2019-06-27T22:05:24.784Z,61.12
2019-06-27T22:07:53.859Z,61.38
2019-06-27T22:10:22.567Z,61.33
2019-06-27T22:12:51.470Z,61.58
2019-06-27T22:15:20.392Z,61.59
2019-06-27T22:17:49.282Z,61.68
2019-06-27T22:20:18.191Z,61.66
2019-06-27T22:22:47.090Z,61.75
2019-06-27T22:25:16.029Z,61.80
2019-06-27T22:27:44.934Z,61.53
2019-06-27T22:30:13.841Z,61.89
2019-06-27T22:32:42.777Z,61.91
2019-06-27T22:35:11.683Z,62.31
2019-06-27T22:37:58.546Z,62.15
2019-06-27T22:40:45.660Z,62.36
2019-06-27T22:43:32.467Z,62.17
2019-06-27T22:46:18.970Z,62.54
2019-06-27T22:48:47.067Z,62.72
2019-06-27T22:51:33.858Z,62.88
2019-06-27T22:54:03.181Z,62.53
2019-06-27T22:56:32.095Z,63.32
2019-06-27T22:59:01.017Z,63.05
2019-06-27T23:01:29.906Z,63.32
2019-06-27T23:03:58.817Z,63.38
2019-06-27T23:06:27.719Z,63.36
2019-06-27T23:08:56.626Z,63.21
2019-06-27T23:11:25.536Z,63.33
2019-06-27T23:13:54.446Z,63.88
2019-06-27T23:16:23.343Z,63.82
2019-06-27T23:18:52.243Z,63.66
2019-06-27T23:21:21.145Z,63.76
2019-06-27T23:23:50.031Z,64.06
2019-06-27T23:26:18.909Z,63.94
2019-06-27T23:28:47.834Z,64.12
2019-06-27T23:31:16.751Z,64.44
2019-06-27T23:33:45.680Z,64.51
2019-06-27T23:36:14.565Z,64.64
2019-06-27T23:38:43.475Z,64.32
2019-06-27T23:41:12.378Z,64.29
2019-06-27T23:43:41.284Z,64.80
2019-06-27T23:46:29.320Z,65.07
2019-06-27T23:48:58.288Z,65.06
2019-06-27T23:51:27.142Z,64.95
2019-06-27T23:53:56.097Z,65.19
2019-06-27T23:56:24.973Z,64.84
2019-06-27T23:58:53.868Z,65.67
